sensor_id;sensor_type;location;lat;lon;timestamp;pressure;altitude;pressure_sealevel;temperature;humidity
31337;BME280;22846;42.654;23.314;2022-11-15T00:01:31;95080.06;;;23.83;56.78
31337;BME280;22846;42.654;23.314;2022-11-15T00:03:56;95079.28;;;23.83;56.73
31337;BME280;22846;42.654;23.314;2022-11-15T00:06:22;95073.13;;;23.79;56.80
31337;BME280;22846;42.654;23.314;2022-11-15T00:08:47;95061.88;;;23.77;56.84
31337;BME280;22846;42.654;23.314;2022-11-15T00:11:12;95073.50;;;23.81;56.92
31337;BME280;22846;42.654;23.314;2022-11-15T00:13:39;95066.50;;;23.80;56.71
31337;BME280;22846;42.654;23.314;2022-11-15T00:16:05;95068.44;;;23.79;57.02
31337;BME280;22846;42.654;23.314;2022-11-15T00:18:30;95062.34;;;23.72;56.86
31337;BME280;22846;42.654;23.314;2022-11-15T00:21:03;95063.06;;;23.76;57.02
31337;BME280;22846;42.654;23.314;2022-11-15T00:23:30;95061.88;;;23.77;56.83
31337;BME280;22846;42.654;23.314;2022-11-15T00:25:57;95055.66;;;23.73;56.96
31337;BME280;22846;42.654;23.314;2022-11-15T00:28:23;95064.25;;;23.75;57.17
31337;BME280;22846;42.654;23.314;2022-11-15T00:30:49;95055.66;;;23.73;56.70
31337;BME280;22846;42.654;23.314;2022-11-15T00:33:14;95052.56;;;23.74;56.87
31337;BME280;22846;42.654;23.314;2022-11-15T00:35:39;95055.66;;;23.73;56.79
31337;BME280;22846;42.654;23.314;2022-11-15T00:38:05;95051.75;;;23.74;57.08
31337;BME280;22846;42.654;23.314;2022-11-15T00:40:30;95046.72;;;23.72;57.13
31337;BME280;22846;42.654;23.314;2022-11-15T00:42:56;95052.19;;;23.72;56.73
31337;BME280;22846;42.654;23.314;2022-11-15T00:45:22;95047.16;;;23.71;56.90
31337;BME280;22846;42.654;23.314;2022-11-15T00:47:47;95051.81;;;23.70;57.16
31337;BME280;22846;42.654;23.314;2022-11-15T00:50:13;95048.00;;;23.68;57.08
31337;BME280;22846;42.654;23.314;2022-11-15T00:52:39;95028.41;;;23.53;56.97
31337;BME280;22846;42.654;23.314;2022-11-15T00:55:04;95045.25;;;23.68;57.12
31337;BME280;22846;42.654;23.314;2022-11-15T00:57:30;95039.81;;;23.68;56.86
31337;BME280;22846;42.654;23.314;2022-11-15T00:59:55;95041.34;;;23.69;56.84
31337;BME280;22846;42.654;23.314;2022-11-15T01:02:21;95037.50;;;23.66;56.81
31337;BME280;22846;42.654;23.314;2022-11-15T01:04:46;95047.63;;;23.66;57.13
31337;BME280;22846;42.654;23.314;2022-11-15T01:07:12;95029.13;;;23.57;57.13
31337;BME280;22846;42.654;23.314;2022-11-15T01:09:39;95035.19;;;23.65;57.10
31337;BME280;22846;42.654;23.314;2022-11-15T01:12:04;95039.09;;;23.64;56.86
31337;BME280;22846;42.654;23.314;2022-11-15T01:14:30;95041.81;;;23.64;57.09
31337;BME280;22846;42.654;23.314;2022-11-15T01:16:55;95041.81;;;23.64;56.87
31337;BME280;22846;42.654;23.314;2022-11-15T01:19:21;95037.22;;;23.61;56.93
31337;BME280;22846;42.654;23.314;2022-11-15T01:21:49;95038.78;;;23.62;56.78
31337;BME280;22846;42.654;23.314;2022-11-15T01:24:15;95033.31;;;23.62;56.77
31337;BME280;22846;42.654;23.314;2022-11-15T01:26:40;95037.22;;;23.61;56.76
31337;BME280;22846;42.654;23.314;2022-11-15T01:29:05;95031.00;;;23.60;57.18
31337;BME280;22846;42.654;23.314;2022-11-15T01:31:31;95041.16;;;23.60;56.84
31337;BME280;22846;42.654;23.314;2022-11-15T01:33:56;95023.25;;;23.59;57.13
31337;BME280;22846;42.654;23.314;2022-11-15T01:36:30;95027.16;;;23.58;56.85
31337;BME280;22846;42.654;23.314;2022-11-15T01:38:57;95035.34;;;23.58;57.23
31337;BME280;22846;42.654;23.314;2022-11-15T01:41:26;95032.59;;;23.58;56.78
31337;BME280;22846;42.654;23.314;2022-11-15T01:43:55;95030.31;;;23.56;56.89
31337;BME280;22846;42.654;23.314;2022-11-15T01:48:46;95028.78;;;23.55;56.79
31337;BME280;22846;42.654;23.314;2022-11-15T01:51:13;95028.00;;;23.55;57.04
31337;BME280;22846;42.654;23.314;2022-11-15T01:53:45;95032.69;;;23.54;57.15
31337;BME280;22846;42.654;23.314;2022-11-15T01:56:16;95020.22;;;23.53;56.96
31337;BME280;22846;42.654;23.314;2022-11-15T01:58:43;95021.03;;;23.54;57.04
31337;BME280;22846;42.654;23.314;2022-11-15T02:01:11;95023.75;;;23.54;56.88
31337;BME280;22846;42.654;23.314;2022-11-15T02:03:57;95023.41;;;23.52;57.03
31337;BME280;22846;42.654;23.314;2022-11-15T02:06:24;95019.47;;;23.53;56.64
31337;BME280;22846;42.654;23.314;2022-11-15T02:08:50;95021.09;;;23.50;57.02
31337;BME280;22846;42.654;23.314;2022-11-15T02:11:16;95019.56;;;23.49;56.82
31337;BME280;22846;42.654;23.314;2022-11-15T02:14:00;95017.22;;;23.48;56.78
31337;BME280;22846;42.654;23.314;2022-11-15T02:25:48;95015.69;;;23.47;56.80
31337;BME280;22846;42.654;23.314;2022-11-15T02:40:18;95015.00;;;23.43;56.77
31337;BME280;22846;42.654;23.314;2022-11-15T02:42:53;95003.00;;;23.40;56.82
31337;BME280;22846;42.654;23.314;2022-11-15T02:46:13;95016.19;;;23.42;57.07
31337;BME280;22846;42.654;23.314;2022-11-15T02:48:41;95013.47;;;23.42;56.81
31337;BME280;22846;42.654;23.314;2022-11-15T02:51:08;95005.09;;;23.33;57.11
31337;BME280;22846;42.654;23.314;2022-11-15T02:53:34;95011.94;;;23.41;57.09
31337;BME280;22846;42.654;23.314;2022-11-15T02:55:59;95009.19;;;23.41;57.05
31337;BME280;22846;42.654;23.314;2022-11-15T03:06:59;95015.84;;;23.40;56.96
31337;BME280;22846;42.654;23.314;2022-11-15T03:17:51;95013.97;;;23.37;56.99
31337;BME280;22846;42.654;23.314;2022-11-15T03:20:19;95009.72;;;23.36;56.67
31337;BME280;22846;42.654;23.314;2022-11-15T03:22:47;95007.31;;;23.38;56.95
31337;BME280;22846;42.654;23.314;2022-11-15T03:25:18;95006.97;;;23.36;56.53
31337;BME280;22846;42.654;23.314;2022-11-15T03:27:49;95007.72;;;23.36;56.75
31337;BME280;22846;42.654;23.314;2022-11-15T03:30:17;95005.78;;;23.37;56.80
31337;BME280;22846;42.654;23.314;2022-11-15T03:32:56;95004.25;;;23.36;56.51
31337;BME280;22846;42.654;23.314;2022-11-15T03:35:23;94996.81;;;23.36;56.62
31337;BME280;22846;42.654;23.314;2022-11-15T03:40:38;94988.38;;;23.31;56.75
31337;BME280;22846;42.654;23.314;2022-11-15T03:45:50;94984.03;;;23.33;56.61
31337;BME280;22846;42.654;23.314;2022-11-15T03:48:34;94985.56;;;23.34;56.77
31337;BME280;22846;42.654;23.314;2022-11-15T03:51:03;94985.56;;;23.34;56.78
31337;BME280;22846;42.654;23.314;2022-11-15T03:53:29;94970.97;;;23.25;56.54
31337;BME280;22846;42.654;23.314;2022-11-15T03:55:56;94975.84;;;23.33;56.58
31337;BME280;22846;42.654;23.314;2022-11-15T03:58:21;94975.84;;;23.33;56.38
31337;BME280;22846;42.654;23.314;2022-11-15T04:00:46;94973.13;;;23.33;56.75
31337;BME280;22846;42.654;23.314;2022-11-15T04:03:12;94977.06;;;23.32;56.69
31337;BME280;22846;42.654;23.314;2022-11-15T04:05:37;94975.50;;;23.31;56.39
31337;BME280;22846;42.654;23.314;2022-11-15T04:08:03;94977.66;;;23.40;54.33
31337;BME280;22846;42.654;23.314;2022-11-15T04:10:28;94972.00;;;23.50;53.99
31337;BME280;22846;42.654;23.314;2022-11-15T04:12:54;94971.03;;;23.57;55.62
31337;BME280;22846;42.654;23.314;2022-11-15T04:15:21;94975.66;;;23.60;56.23
31337;BME280;22846;42.654;23.314;2022-11-15T04:17:50;94976.44;;;23.60;56.17
31337;BME280;22846;42.654;23.314;2022-11-15T04:20:23;94968.66;;;23.59;55.98
31337;BME280;22846;42.654;23.314;2022-11-15T04:23:16;94967.13;;;23.58;54.50
31337;BME280;22846;42.654;23.314;2022-11-15T04:26:21;94961.88;;;23.67;53.57
31337;BME280;22846;42.654;23.314;2022-11-15T04:28:47;94960.88;;;23.77;53.69
31337;BME280;22846;42.654;23.314;2022-11-15T04:31:31;94960.13;;;23.92;53.43
31337;BME280;22846;42.654;23.314;2022-11-15T04:33:57;94966.44;;;24.05;53.50
31337;BME280;22846;42.654;23.314;2022-11-15T04:36:23;94963.44;;;24.15;53.27
31337;BME280;22846;42.654;23.314;2022-11-15T04:39:07;94962.34;;;24.29;52.61
31337;BME280;22846;42.654;23.314;2022-11-15T04:41:33;94965.22;;;24.38;52.65
31337;BME280;22846;42.654;23.314;2022-11-15T04:43:58;94962.69;;;24.47;53.46
31337;BME280;22846;42.654;23.314;2022-11-15T04:46:24;94965.47;;;24.59;53.25
31337;BME280;22846;42.654;23.314;2022-11-15T04:48:50;94970.69;;;24.70;53.62
31337;BME280;22846;42.654;23.314;2022-11-15T04:51:16;94973.47;;;24.82;53.17
31337;BME280;22846;42.654;23.314;2022-11-15T04:53:41;94976.66;;;24.93;53.64
31337;BME280;22846;42.654;23.314;2022-11-15T04:56:07;94971.34;;;25.02;53.54
31337;BME280;22846;42.654;23.314;2022-11-15T04:58:32;94973.50;;;25.10;53.81
31337;BME280;22846;42.654;23.314;2022-11-15T05:01:09;94971.84;;;25.13;51.81
31337;BME280;22846;42.654;23.314;2022-11-15T05:03:34;94969.63;;;25.08;50.60
31337;BME280;22846;42.654;23.314;2022-11-15T05:06:18;94967.09;;;25.01;51.59
31337;BME280;22846;42.654;23.314;2022-11-15T05:08:43;94975.56;;;24.90;52.13
31337;BME280;22846;42.654;23.314;2022-11-15T05:11:09;94977.41;;;24.81;50.52
31337;BME280;22846;42.654;23.314;2022-11-15T05:13:34;94972.97;;;24.71;50.50
31337;BME280;22846;42.654;23.314;2022-11-15T05:16:00;94975.91;;;24.64;51.56
31337;BME280;22846;42.654;23.314;2022-11-15T05:18:25;94970.53;;;24.61;51.99
31337;BME280;22846;42.654;23.314;2022-11-15T05:20:50;94972.50;;;24.60;52.14
31337;BME280;22846;42.654;23.314;2022-11-15T05:23:16;94969.34;;;24.62;52.30
31337;BME280;22846;42.654;23.314;2022-11-15T05:25:41;94966.06;;;24.67;52.50
31337;BME280;22846;42.654;23.314;2022-11-15T05:28:06;94967.53;;;24.71;52.29
31337;BME280;22846;42.654;23.314;2022-11-15T05:30:32;94964.69;;;24.75;52.33
31337;BME280;22846;42.654;23.314;2022-11-15T05:32:57;94965.03;;;24.77;51.95
31337;BME280;22846;42.654;23.314;2022-11-15T05:35:31;94966.47;;;24.81;52.03
31337;BME280;22846;42.654;23.314;2022-11-15T05:37:59;94970.19;;;24.87;52.32
31337;BME280;22846;42.654;23.314;2022-11-15T05:40:26;94970.53;;;24.89;50.92
31337;BME280;22846;42.654;23.314;2022-11-15T05:42:51;94975.31;;;24.85;51.40
31337;BME280;22846;42.654;23.314;2022-11-15T05:45:17;94971.59;;;24.79;51.13
31337;BME280;22846;42.654;23.314;2022-11-15T05:47:43;94972.22;;;24.71;51.47
31337;BME280;22846;42.654;23.314;2022-11-15T05:50:12;94968.91;;;24.63;51.37
31337;BME280;22846;42.654;23.314;2022-11-15T05:52:40;94967.91;;;24.57;51.66
31337;BME280;22846;42.654;23.314;2022-11-15T05:55:06;94966.97;;;24.48;51.91
31337;BME280;22846;42.654;23.314;2022-11-15T05:57:33;94974.50;;;24.44;52.26
31337;BME280;22846;42.654;23.314;2022-11-15T05:59:58;94979.31;;;24.36;52.98
31337;BME280;22846;42.654;23.314;2022-11-15T06:02:24;94968.59;;;24.29;53.11
31337;BME280;22846;42.654;23.314;2022-11-15T06:04:49;94974.53;;;24.24;53.50
31337;BME280;22846;42.654;23.314;2022-11-15T06:07:15;94976.59;;;24.20;53.67
31337;BME280;22846;42.654;23.314;2022-11-15T06:09:40;94975.25;;;24.12;53.47
31337;BME280;22846;42.654;23.314;2022-11-15T06:12:06;94979.16;;;24.11;54.06
31337;BME280;22846;42.654;23.314;2022-11-15T06:14:31;94983.94;;;24.07;53.98
31337;BME280;22846;42.654;23.314;2022-11-15T06:16:57;94994.19;;;24.03;53.60
31337;BME280;22846;42.654;23.314;2022-11-15T06:19:22;94983.69;;;24.02;54.13
31337;BME280;22846;42.654;23.314;2022-11-15T06:21:47;94984.97;;;23.97;53.71
31337;BME280;22846;42.654;23.314;2022-11-15T06:24:13;94980.34;;;23.94;54.13
31337;BME280;22846;42.654;23.314;2022-11-15T06:26:38;94987.44;;;23.92;54.31
31337;BME280;22846;42.654;23.314;2022-11-15T06:29:04;94985.13;;;23.91;54.27
31337;BME280;22846;42.654;23.314;2022-11-15T06:31:30;94978.56;;;23.88;54.36
31337;BME280;22846;42.654;23.314;2022-11-15T06:33:55;94976.25;;;23.87;54.53
31337;BME280;22846;42.654;23.314;2022-11-15T06:36:21;94973.19;;;23.85;54.59
31337;BME280;22846;42.654;23.314;2022-11-15T06:38:46;94970.09;;;23.83;54.24
31337;BME280;22846;42.654;23.314;2022-11-15T06:41:13;94967.09;;;23.77;54.45
31337;BME280;22846;42.654;23.314;2022-11-15T06:43:39;94977.19;;;23.80;54.62
31337;BME280;22846;42.654;23.314;2022-11-15T06:46:05;94970.63;;;23.78;54.64
31337;BME280;22846;42.654;23.314;2022-11-15T06:48:32;94968.31;;;23.76;54.62
31337;BME280;22846;42.654;23.314;2022-11-15T06:50:59;94972.63;;;23.74;54.54
31337;BME280;22846;42.654;23.314;2022-11-15T06:53:25;94971.84;;;23.73;54.32
31337;BME280;22846;42.654;23.314;2022-11-15T06:55:51;94970.31;;;23.72;54.15
31337;BME280;22846;42.654;23.314;2022-11-15T06:58:17;94968.78;;;23.71;54.62
31337;BME280;22846;42.654;23.314;2022-11-15T07:00:43;94979.34;;;23.69;54.81
31337;BME280;22846;42.654;23.314;2022-11-15T07:03:09;94977.81;;;23.68;54.38
31337;BME280;22846;42.654;23.314;2022-11-15T07:05:35;94975.50;;;23.67;54.60
31337;BME280;22846;42.654;23.314;2022-11-15T07:08:01;94955.47;;;23.57;53.90
31337;BME280;22846;42.654;23.314;2022-11-15T07:10:26;94967.47;;;23.60;54.74
31337;BME280;22846;42.654;23.314;2022-11-15T07:12:53;94971.25;;;23.66;54.55
31337;BME280;22846;42.654;23.314;2022-11-15T07:15:21;94959.22;;;23.63;54.13
31337;BME280;22846;42.654;23.314;2022-11-15T07:17:46;94955.72;;;23.63;54.60
31337;BME280;22846;42.654;23.314;2022-11-15T07:20:13;94962.38;;;23.62;54.63
31337;BME280;22846;42.654;23.314;2022-11-15T07:22:40;94964.75;;;23.60;54.75
31337;BME280;22846;42.654;23.314;2022-11-15T07:25:06;94969.03;;;23.61;54.20
31337;BME280;22846;42.654;23.314;2022-11-15T07:27:32;94963.97;;;23.59;54.30
31337;BME280;22846;42.654;23.314;2022-11-15T07:29:57;94971.41;;;23.59;54.17
31337;BME280;22846;42.654;23.314;2022-11-15T07:32:23;94968.66;;;23.59;54.28
31337;BME280;22846;42.654;23.314;2022-11-15T07:34:48;94969.88;;;23.58;53.61
31337;BME280;22846;42.654;23.314;2022-11-15T07:37:14;94980.03;;;23.57;54.29
31337;BME280;22846;42.654;23.314;2022-11-15T07:39:39;94977.28;;;23.57;54.18
31337;BME280;22846;42.654;23.314;2022-11-15T07:42:05;94972.25;;;23.56;54.60
31337;BME280;22846;42.654;23.314;2022-11-15T07:44:49;94970.72;;;23.55;54.37
31337;BME280;22846;42.654;23.314;2022-11-15T07:47:14;94966.47;;;23.54;54.53
31337;BME280;22846;42.654;23.314;2022-11-15T07:49:40;94964.91;;;23.53;54.35
31337;BME280;22846;42.654;23.314;2022-11-15T07:52:05;94970.38;;;23.53;54.54
31337;BME280;22846;42.654;23.314;2022-11-15T07:54:31;94967.66;;;23.53;54.31
31337;BME280;22846;42.654;23.314;2022-11-15T07:56:56;94968.84;;;23.52;54.39
31337;BME280;22846;42.654;23.314;2022-11-15T07:59:22;94964.13;;;23.52;53.43
31337;BME280;22846;42.654;23.314;2022-11-15T08:01:47;94970.03;;;23.51;54.80
31337;BME280;22846;42.654;23.314;2022-11-15T08:04:13;94963.81;;;23.50;54.33
31337;BME280;22846;42.654;23.314;2022-11-15T08:06:38;94960.66;;;23.52;54.19
31337;BME280;22846;42.654;23.314;2022-11-15T08:09:03;94961.09;;;23.50;52.98
31337;BME280;22846;42.654;23.314;2022-11-15T08:11:29;94956.03;;;23.49;53.15
31337;BME280;22846;42.654;23.314;2022-11-15T08:13:55;94965.00;;;23.49;54.09
31337;BME280;22846;42.654;23.314;2022-11-15T08:16:20;94959.53;;;23.49;53.71
31337;BME280;22846;42.654;23.314;2022-11-15T08:18:46;94963.47;;;23.48;53.74
31337;BME280;22846;42.654;23.314;2022-11-15T08:21:14;94951.00;;;23.47;54.13
31337;BME280;22846;42.654;23.314;2022-11-15T08:23:43;94958.41;;;23.47;54.13
31337;BME280;22846;42.654;23.314;2022-11-15T08:26:08;94956.09;;;23.45;53.76
31337;BME280;22846;42.654;23.314;2022-11-15T08:30:59;94958.84;;;23.45;53.72
31337;BME280;22846;42.654;23.314;2022-11-15T08:33:25;94948.75;;;23.42;54.00
31337;BME280;22846;42.654;23.314;2022-11-15T08:35:50;94956.53;;;23.44;53.34
31337;BME280;22846;42.654;23.314;2022-11-15T08:38:16;94957.72;;;23.43;54.11
31337;BME280;22846;42.654;23.314;2022-11-15T08:40:41;94945.28;;;23.42;53.70
31337;BME280;22846;42.654;23.314;2022-11-15T08:43:07;94945.63;;;23.44;53.79
31337;BME280;22846;42.654;23.314;2022-11-15T08:45:34;94941.38;;;23.43;54.15
31337;BME280;22846;42.654;23.314;2022-11-15T08:48:01;94931.63;;;23.42;54.00
31337;BME280;22846;42.654;23.314;2022-11-15T08:50:27;94923.63;;;23.35;53.77
31337;BME280;22846;42.654;23.314;2022-11-15T08:52:53;94938.28;;;23.41;54.19
31337;BME280;22846;42.654;23.314;2022-11-15T08:55:18;94933.63;;;23.41;54.03
31337;BME280;22846;42.654;23.314;2022-11-15T08:57:44;94941.00;;;23.41;53.76
31337;BME280;22846;42.654;23.314;2022-11-15T09:00:11;94925.44;;;23.41;54.13
31337;BME280;22846;42.654;23.314;2022-11-15T09:02:38;94919.97;;;23.41;54.08
31337;BME280;22846;42.654;23.314;2022-11-15T09:05:04;94921.91;;;23.41;54.35
31337;BME280;22846;42.654;23.314;2022-11-15T09:07:30;94915.72;;;23.40;53.92
31337;BME280;22846;42.654;23.314;2022-11-15T09:09:57;94913.75;;;23.41;53.97
31337;BME280;22846;42.654;23.314;2022-11-15T09:12:23;94906.75;;;23.40;53.71
31337;BME280;22846;42.654;23.314;2022-11-15T09:14:48;94908.72;;;23.39;54.03
31337;BME280;22846;42.654;23.314;2022-11-15T09:17:13;94905.22;;;23.39;54.08
31337;BME280;22846;42.654;23.314;2022-11-15T09:19:39;94906.00;;;23.39;53.63
31337;BME280;22846;42.654;23.314;2022-11-15T09:22:08;94902.47;;;23.39;53.63
31337;BME280;22846;42.654;23.314;2022-11-15T09:24:34;94895.06;;;23.39;54.16
31337;BME280;22846;42.654;23.314;2022-11-15T09:26:59;94874.00;;;23.24;53.74
31337;BME280;22846;42.654;23.314;2022-11-15T09:29:25;94895.84;;;23.40;53.78
31337;BME280;22846;42.654;23.314;2022-11-15T09:31:54;94881.25;;;23.30;53.41
31337;BME280;22846;42.654;23.314;2022-11-15T09:34:19;94887.31;;;23.38;53.84
31337;BME280;22846;42.654;23.314;2022-11-15T09:36:46;94887.31;;;23.38;53.66
31337;BME280;22846;42.654;23.314;2022-11-15T09:39:11;94883.81;;;23.37;53.88
31337;BME280;22846;42.654;23.314;2022-11-15T09:44:22;94874.09;;;23.36;53.95
31337;BME280;22846;42.654;23.314;2022-11-15T09:49:41;94867.88;;;23.36;54.07
31337;BME280;22846;42.654;23.314;2022-11-15T09:52:07;94870.19;;;23.37;53.93
31337;BME280;22846;42.654;23.314;2022-11-15T09:54:37;94866.69;;;23.37;54.07
31337;BME280;22846;42.654;23.314;2022-11-15T10:00:02;94858.53;;;23.37;53.75
31337;BME280;22846;42.654;23.314;2022-11-15T10:05:19;94852.28;;;23.36;53.85
31337;BME280;22846;42.654;23.314;2022-11-15T10:08:40;94844.53;;;23.35;53.79
31337;BME280;22846;42.654;23.314;2022-11-15T10:10:48;94822.03;;;23.31;53.78
31337;BME280;22846;42.654;23.314;2022-11-15T10:13:25;94828.94;;;23.35;53.71
31337;BME280;22846;42.654;23.314;2022-11-15T10:15:53;94820.34;;;23.37;53.13
31337;BME280;22846;42.654;23.314;2022-11-15T10:22:10;94828.53;;;23.37;53.10
31337;BME280;22846;42.654;23.314;2022-11-15T10:24:19;94822.28;;;23.36;52.94
31337;BME280;22846;42.654;23.314;2022-11-15T10:26:48;94820.34;;;23.37;52.75
31337;BME280;22846;42.654;23.314;2022-11-15T10:29:24;94815.19;;;23.39;52.21
31337;BME280;22846;42.654;23.314;2022-11-15T10:31:51;94814.81;;;23.40;52.75
31337;BME280;22846;42.654;23.314;2022-11-15T10:34:22;94809.34;;;23.40;53.10
31337;BME280;22846;42.654;23.314;2022-11-15T10:36:59;94802.25;;;23.43;53.30
31337;BME280;22846;42.654;23.314;2022-11-15T10:41:51;94787.69;;;23.49;52.26
31337;BME280;22846;42.654;23.314;2022-11-15T10:46:45;94778.63;;;23.52;52.48
31337;BME280;22846;42.654;23.314;2022-11-15T10:49:20;94780.44;;;23.59;52.27
31337;BME280;22846;42.654;23.314;2022-11-15T10:51:52;94775.31;;;23.61;52.29
31337;BME280;22846;42.654;23.314;2022-11-15T10:56:55;94771.31;;;23.65;51.75
31337;BME280;22846;42.654;23.314;2022-11-15T10:59:29;94756.88;;;23.65;52.14
31337;BME280;22846;42.654;23.314;2022-11-15T11:01:56;94758.66;;;23.71;52.19
31337;BME280;22846;42.654;23.314;2022-11-15T11:04:22;94757.03;;;23.74;52.00
31337;BME280;22846;42.654;23.314;2022-11-15T11:06:58;94748.47;;;23.75;51.87
31337;BME280;22846;42.654;23.314;2022-11-15T11:11:55;94748.72;;;23.81;51.52
31337;BME280;22846;42.654;23.314;2022-11-15T11:33:33;94694.59;;;23.92;51.44
31337;BME280;22846;42.654;23.314;2022-11-15T11:38:49;94691.00;;;23.94;51.64
31337;BME280;22846;42.654;23.314;2022-11-15T11:44:30;94679.22;;;23.97;51.52
31337;BME280;22846;42.654;23.314;2022-11-15T11:47:07;94680.00;;;23.98;51.36
31337;BME280;22846;42.654;23.314;2022-11-15T11:52:32;94675.63;;;24.00;51.06
31337;BME280;22846;42.654;23.314;2022-11-15T11:55:20;94665.03;;;24.02;51.37
31337;BME280;22846;42.654;23.314;2022-11-15T11:57:58;94649.22;;;23.97;51.17
31337;BME280;22846;42.654;23.314;2022-11-15T12:00:27;94657.19;;;24.04;50.95
31337;BME280;22846;42.654;23.314;2022-11-15T12:05:42;94642.34;;;24.05;51.32
31337;BME280;22846;42.654;23.314;2022-11-15T12:08:23;94639.59;;;24.05;51.27
31337;BME280;22846;42.654;23.314;2022-11-15T12:11:10;94638.41;;;24.06;50.92
31337;BME280;22846;42.654;23.314;2022-11-15T12:13:40;94639.50;;;24.09;50.73
31337;BME280;22846;42.654;23.314;2022-11-15T12:16:17;94633.25;;;24.08;50.50
31337;BME280;22846;42.654;23.314;2022-11-15T12:18:51;94631.31;;;24.09;50.87
31337;BME280;22846;42.654;23.314;2022-11-15T12:21:46;94632.41;;;24.11;50.56
31337;BME280;22846;42.654;23.314;2022-11-15T12:24:24;94622.69;;;24.10;50.54
31337;BME280;22846;42.654;23.314;2022-11-15T12:27:17;94617.88;;;24.14;50.96
31337;BME280;22846;42.654;23.314;2022-11-15T12:29:48;94613.53;;;24.17;50.68
31337;BME280;22846;42.654;23.314;2022-11-15T12:32:24;94605.09;;;24.24;50.51
31337;BME280;22846;42.654;23.314;2022-11-15T12:34:51;94619.22;;;24.22;50.44
31337;BME280;22846;42.654;23.314;2022-11-15T12:45:44;94595.16;;;24.30;50.74
31337;BME280;22846;42.654;23.314;2022-11-15T12:58:49;94584.03;;;24.37;49.14
31337;BME280;22846;42.654;23.314;2022-11-15T13:04:21;94568.97;;;24.32;49.58
31337;BME280;22846;42.654;23.314;2022-11-15T13:11:56;94578.47;;;24.40;49.40
31337;BME280;22846;42.654;23.314;2022-11-15T13:19:47;94560.09;;;24.41;49.24
31337;BME280;22846;42.654;23.314;2022-11-15T13:22:14;94562.38;;;24.42;49.14
31337;BME280;22846;42.654;23.314;2022-11-15T13:25:02;94561.75;;;24.38;49.06
31337;BME280;22846;42.654;23.314;2022-11-15T13:27:28;94557.47;;;24.37;49.36
31337;BME280;22846;42.654;23.314;2022-11-15T13:29:54;94559.53;;;24.33;49.41
31337;BME280;22846;42.654;23.314;2022-11-15T13:32:20;94552.88;;;24.34;49.41
31337;BME280;22846;42.654;23.314;2022-11-15T13:34:47;94555.31;;;24.32;49.59
31337;BME280;22846;42.654;23.314;2022-11-15T13:39:44;94555.59;;;24.34;49.70
31337;BME280;22846;42.654;23.314;2022-11-15T13:42:15;94543.38;;;24.26;50.04
31337;BME280;22846;42.654;23.314;2022-11-15T13:44:54;94553.00;;;24.31;49.65
31337;BME280;22846;42.654;23.314;2022-11-15T13:47:20;94553.78;;;24.31;49.33
31337;BME280;22846;42.654;23.314;2022-11-15T13:49:46;94550.72;;;24.29;49.33
31337;BME280;22846;42.654;23.314;2022-11-15T13:52:14;94551.16;;;24.28;49.83
31337;BME280;22846;42.654;23.314;2022-11-15T13:54:55;94548.50;;;24.24;49.57
31337;BME280;22846;42.654;23.314;2022-11-15T13:57:37;94537.47;;;24.15;49.68
31337;BME280;22846;42.654;23.314;2022-11-15T14:00:21;94542.75;;;24.22;49.75
31337;BME280;22846;42.654;23.314;2022-11-15T14:02:47;94540.00;;;24.22;48.89
31337;BME280;22846;42.654;23.314;2022-11-15T14:05:18;94540.22;;;24.15;48.46
31337;BME280;22846;42.654;23.314;2022-11-15T14:07:54;94537.59;;;24.12;49.36
31337;BME280;22846;42.654;23.314;2022-11-15T14:10:34;94536.97;;;24.08;49.67
31337;BME280;22846;42.654;23.314;2022-11-15T14:13:02;94534.97;;;24.08;49.98
31337;BME280;22846;42.654;23.314;2022-11-15T14:15:36;94537.72;;;24.08;49.69
31337;BME280;22846;42.654;23.314;2022-11-15T14:18:03;94536.19;;;24.07;50.13
31337;BME280;22846;42.654;23.314;2022-11-15T14:20:33;94542.41;;;24.08;50.23
31337;BME280;22846;42.654;23.314;2022-11-15T14:23:04;94529.97;;;24.07;50.13
31337;BME280;22846;42.654;23.314;2022-11-15T14:25:32;94534.34;;;24.04;50.14
31337;BME280;22846;42.654;23.314;2022-11-15T14:30:50;94537.81;;;24.05;50.27
31337;BME280;22846;42.654;23.314;2022-11-15T14:33:27;94539.03;;;24.04;50.59
31337;BME280;22846;42.654;23.314;2022-11-15T14:35:57;94542.19;;;24.02;50.32
31337;BME280;22846;42.654;23.314;2022-11-15T14:38:26;94530.53;;;24.02;49.88
31337;BME280;22846;42.654;23.314;2022-11-15T14:40:52;94539.13;;;24.00;48.06
31337;BME280;22846;42.654;23.314;2022-11-15T14:43:18;94545.91;;;23.96;48.57
31337;BME280;22846;42.654;23.314;2022-11-15T14:45:44;94539.69;;;23.95;49.79
31337;BME280;22846;42.654;23.314;2022-11-15T14:48:09;94541.63;;;23.95;49.72
31337;BME280;22846;42.654;23.314;2022-11-15T14:50:35;94538.69;;;23.90;50.13
31337;BME280;22846;42.654;23.314;2022-11-15T14:53:00;94534.75;;;23.91;50.69
31337;BME280;22846;42.654;23.314;2022-11-15T14:55:35;94544.06;;;23.93;50.08
31337;BME280;22846;42.654;23.314;2022-11-15T14:58:02;94539.34;;;23.93;50.55
31337;BME280;22846;42.654;23.314;2022-11-15T15:00:30;94540.53;;;23.92;50.21
31337;BME280;22846;42.654;23.314;2022-11-15T15:02:56;94546.00;;;23.92;50.25
31337;BME280;22846;42.654;23.314;2022-11-15T15:05:24;94544.47;;;23.92;49.92
31337;BME280;22846;42.654;23.314;2022-11-15T15:07:50;94543.72;;;23.91;50.38
31337;BME280;22846;42.654;23.314;2022-11-15T15:10:18;94537.47;;;23.91;50.48
31337;BME280;22846;42.654;23.314;2022-11-15T15:12:44;94534.44;;;23.89;50.15
31337;BME280;22846;42.654;23.314;2022-11-15T15:15:19;94538.03;;;23.86;49.91
31337;BME280;22846;42.654;23.314;2022-11-15T15:17:46;94531.38;;;23.87;50.18
31337;BME280;22846;42.654;23.314;2022-11-15T15:20:12;94531.78;;;23.85;49.06